Time;durP1;ratioP1;P1;durP2;ratioP2;P2;SDS_P1;SDS_P2;PMS_P1;PMS_P2;Temp;Humidity;BMP_temperature;BMP_pressure;BME280_temperature;BME280_humidity;BME280_pressure;Samples;Min_cycle;Max_cycle;Signal;HPM_P1;HPM_P2
2022/11/12 00:01:25;;;;;;;4.77;3.13;;;7.60;99.90;;;;;;5037640;28;20462;-78
2022/11/12 00:03:52;;;;;;;4.10;2.43;;;7.60;99.90;;;;;;5037776;28;20473;-79
2022/11/12 00:06:19;;;;;;;5.27;2.60;;;7.60;99.90;;;;;;5037634;28;20448;-78
2022/11/12 00:08:46;;;;;;;4.77;3.10;;;7.60;99.90;;;;;;5036276;28;20570;-80
2022/11/12 00:11:12;;;;;;;3.93;2.90;;;7.50;99.90;;;;;;5033995;28;20551;-80
2022/11/12 00:13:39;;;;;;;3.83;2.27;;;7.60;99.90;;;;;;5035287;28;20490;-78
2022/11/12 00:16:09;;;;;;;4.97;2.97;;;7.50;99.90;;;;;;5036091;28;20452;-80
2022/11/12 00:18:37;;;;;;;4.87;2.67;;;7.60;99.90;;;;;;5035613;28;20455;-79
2022/11/12 00:21:04;;;;;;;5.50;2.80;;;7.50;99.90;;;;;;5035336;28;20445;-78
2022/11/12 00:23:31;;;;;;;5.20;2.50;;;7.50;99.90;;;;;;5035665;28;20958;-78
2022/11/12 00:25:59;;;;;;;4.43;2.60;;;7.50;99.90;;;;;;5035864;28;20458;-80
2022/11/12 00:28:25;;;;;;;4.97;2.70;;;7.50;99.90;;;;;;5034474;28;20629;-80
2022/11/12 00:30:52;;;;;;;4.93;3.10;;;7.50;99.90;;;;;;5035592;28;20967;-79
2022/11/12 00:33:19;;;;;;;4.67;2.80;;;7.50;99.90;;;;;;5035386;28;20461;-79
2022/11/12 00:35:47;;;;;;;6.20;2.73;;;7.50;99.90;;;;;;5034807;28;20452;-79
2022/11/12 00:38:14;;;;;;;6.33;3.10;;;7.40;99.90;;;;;;5038665;28;20450;-81
2022/11/12 00:40:41;;;;;;;4.47;2.40;;;7.40;99.90;;;;;;5041400;28;20952;-82
2022/11/12 00:43:08;;;;;;;4.10;2.50;;;7.40;99.90;;;;;;5041396;28;20769;-77
2022/11/12 00:45:35;;;;;;;4.10;2.80;;;7.40;99.90;;;;;;5041776;28;20456;-80
2022/11/12 00:48:02;;;;;;;5.23;2.30;;;7.40;99.90;;;;;;5040477;28;20561;-81
2022/11/12 00:50:29;;;;;;;4.40;2.43;;;7.30;99.90;;;;;;5041120;28;20448;-80
2022/11/12 00:52:57;;;;;;;4.33;2.40;;;7.30;99.90;;;;;;5041387;28;21037;-81
2022/11/12 00:55:23;;;;;;;5.53;2.73;;;7.30;99.90;;;;;;5041236;28;20560;-81
2022/11/12 00:57:50;;;;;;;7.57;3.23;;;7.30;99.90;;;;;;5040362;28;20991;-81
2022/11/12 01:00:18;;;;;;;4.07;2.40;;;7.30;99.90;;;;;;5041180;28;20487;-81
2022/11/12 01:02:45;;;;;;;6.17;2.70;;;7.30;99.90;;;;;;5041200;28;20453;-80
2022/11/12 01:05:12;;;;;;;4.47;2.87;;;7.30;99.90;;;;;;5040424;28;20545;-81
2022/11/12 01:07:39;;;;;;;6.23;2.73;;;7.30;99.90;;;;;;5040704;28;20453;-80
2022/11/12 01:10:09;;;;;;;5.30;2.60;;;7.30;99.90;;;;;;5041120;28;20565;-82
2022/11/12 01:12:36;;;;;;;4.20;2.40;;;7.20;99.90;;;;;;5040729;28;20527;-81
2022/11/12 01:15:04;;;;;;;3.97;2.40;;;7.20;99.90;;;;;;5040556;28;20473;-80
2022/11/12 01:17:31;;;;;;;4.60;2.80;;;7.20;99.90;;;;;;5031874;28;20467;-81
2022/11/12 01:19:58;;;;;;;3.87;2.10;;;7.10;99.90;;;;;;5037992;28;20571;-78
2022/11/12 01:22:25;;;;;;;7.90;3.17;;;7.10;99.90;;;;;;5040395;28;20459;-80
2022/11/12 01:24:52;;;;;;;7.03;3.00;;;7.10;99.90;;;;;;5039874;28;20870;-80
2022/11/12 01:27:20;;;;;;;3.50;2.70;;;7.10;99.90;;;;;;5040365;28;20458;-79
2022/11/12 01:29:47;;;;;;;5.80;2.80;;;7.10;99.90;;;;;;5039993;28;20579;-82
2022/11/12 01:32:13;;;;;;;4.80;2.80;;;7.10;99.90;;;;;;5039741;28;20458;-81
2022/11/12 01:34:40;;;;;;;5.03;2.57;;;7.10;99.90;;;;;;5040222;28;20880;-80
2022/11/12 01:37:07;;;;;;;5.57;2.93;;;7.10;99.90;;;;;;5040343;28;20458;-82
2022/11/12 01:39:34;;;;;;;4.10;2.10;;;7.10;99.90;;;;;;5039434;28;20472;-81
2022/11/12 01:42:01;;;;;;;4.23;3.07;;;7.00;99.90;;;;;;5040173;28;20451;-81
2022/11/12 01:44:31;;;;;;;4.40;2.13;;;7.00;99.90;;;;;;5040183;28;21110;-81
2022/11/12 01:47:02;;;;;;;4.10;2.77;;;7.00;99.90;;;;;;5041727;28;20535;-80
2022/11/12 01:49:33;;;;;;;5.07;2.60;;;7.00;99.90;;;;;;5040507;28;21048;-79
2022/11/12 01:52:07;;;;;;;5.10;3.20;;;7.00;99.90;;;;;;5041649;28;20462;-80
2022/11/12 01:54:35;;;;;;;4.37;2.50;;;7.00;99.90;;;;;;5039031;28;20476;-79
2022/11/12 01:57:02;;;;;;;3.97;2.37;;;7.00;99.90;;;;;;5038602;28;20535;-81
2022/11/12 01:59:38;;;;;;;3.67;2.73;;;7.00;99.90;;;;;;5038023;28;20818;-79
2022/11/12 02:02:05;;;;;;;5.20;3.17;;;7.00;99.90;;;;;;5038379;28;20446;-80
2022/11/12 02:04:33;;;;;;;5.37;3.47;;;6.90;99.90;;;;;;5038534;28;20561;-78
2022/11/12 02:07:02;;;;;;;5.13;3.13;;;6.90;99.90;;;;;;5039009;28;20550;-81
2022/11/12 02:09:29;;;;;;;4.30;2.87;;;6.90;99.90;;;;;;5037366;28;20949;-81
2022/11/12 02:11:56;;;;;;;6.30;3.20;;;6.90;99.90;;;;;;5038575;28;20455;-79
2022/11/12 02:14:22;;;;;;;3.43;2.23;;;6.90;99.90;;;;;;5038032;28;21076;-81
2022/11/12 02:16:50;;;;;;;5.83;2.57;;;6.90;99.90;;;;;;5037995;28;20543;-79
2022/11/12 02:19:17;;;;;;;4.53;2.70;;;6.90;99.90;;;;;;5036818;28;20208;-81
2022/11/12 02:21:46;;;;;;;4.60;3.40;;;6.90;99.90;;;;;;5037479;28;20456;-79
2022/11/12 02:24:33;;;;;;;4.80;2.80;;;6.90;99.90;;;;;;5037606;28;20564;-79
2022/11/12 02:27:00;;;;;;;5.43;2.40;;;6.90;99.90;;;;;;5037916;28;20467;-80
2022/11/12 02:29:27;;;;;;;4.53;2.80;;;6.90;99.90;;;;;;5036722;28;20484;-79
2022/11/12 02:31:54;;;;;;;3.80;2.50;;;6.90;99.90;;;;;;5037515;28;20455;-79
2022/11/12 02:34:20;;;;;;;3.67;2.70;;;6.80;99.90;;;;;;5037725;28;20480;-80
2022/11/12 02:36:48;;;;;;;4.03;2.30;;;6.80;99.90;;;;;;5038356;28;20532;-80
2022/11/12 02:39:15;;;;;;;3.40;2.17;;;6.80;99.90;;;;;;5037913;28;20455;-80
2022/11/12 02:41:42;;;;;;;3.27;2.00;;;6.80;99.90;;;;;;5038290;28;20431;-80
2022/11/12 02:44:09;;;;;;;4.27;2.73;;;6.80;99.90;;;;;;5038406;28;20992;-80
2022/11/12 02:46:36;;;;;;;4.63;2.90;;;6.80;99.90;;;;;;5038497;28;20676;-79
2022/11/12 02:49:02;;;;;;;3.80;2.40;;;6.80;99.90;;;;;;5038628;28;20491;-82
2022/11/12 02:51:29;;;;;;;6.23;2.90;;;6.80;99.90;;;;;;5037508;28;20939;-80
2022/11/12 02:53:57;;;;;;;4.13;2.60;;;6.80;99.90;;;;;;5042608;28;20478;-80
2022/11/12 02:56:24;;;;;;;4.53;2.47;;;6.80;99.90;;;;;;5042635;28;20447;-81
2022/11/12 02:58:51;;;;;;;3.60;2.57;;;6.80;99.90;;;;;;5042127;28;20454;-81
2022/11/12 03:01:18;;;;;;;3.40;2.10;;;6.80;99.90;;;;;;5041619;28;20504;-79
2022/11/12 03:03:45;;;;;;;2.90;1.90;;;6.80;99.90;;;;;;5041861;28;20555;-81
2022/11/12 03:06:11;;;;;;;4.60;2.33;;;6.80;99.90;;;;;;5041926;28;20451;-80
2022/11/12 03:08:38;;;;;;;4.17;2.57;;;6.90;99.90;;;;;;5040837;28;20492;-81
2022/11/12 03:11:12;;;;;;;4.33;2.53;;;6.90;99.90;;;;;;5041040;28;20470;-83
2022/11/12 03:13:39;;;;;;;4.70;2.50;;;6.90;99.90;;;;;;5042279;28;20504;-80
2022/11/12 03:16:06;;;;;;;3.90;2.83;;;6.80;99.90;;;;;;5042998;28;20543;-80
2022/11/12 03:18:33;;;;;;;5.20;2.23;;;6.90;99.90;;;;;;5041227;28;20960;-79
2022/11/12 03:21:00;;;;;;;4.67;2.63;;;6.90;99.90;;;;;;5041695;28;20447;-81
2022/11/12 03:23:27;;;;;;;3.70;2.87;;;6.90;99.90;;;;;;5042272;28;20461;-79
2022/11/12 03:25:54;;;;;;;4.90;2.63;;;6.90;99.90;;;;;;5042373;28;20541;-80
2022/11/12 03:28:23;;;;;;;5.03;2.60;;;6.90;99.90;;;;;;5040503;28;20454;-78
2022/11/12 03:30:50;;;;;;;3.77;2.37;;;6.90;99.90;;;;;;5042020;28;20531;-80
2022/11/12 03:33:17;;;;;;;3.30;2.63;;;6.90;99.90;;;;;;5041900;28;20468;-81
2022/11/12 03:35:44;;;;;;;6.53;3.90;;;6.90;99.90;;;;;;5042180;28;20540;-79
2022/11/12 03:38:11;;;;;;;5.20;2.73;;;6.90;99.90;;;;;;5040924;28;20550;-80
2022/11/12 03:40:38;;;;;;;3.93;2.67;;;6.90;99.90;;;;;;5041415;28;20901;-80
2022/11/12 03:43:05;;;;;;;3.90;2.37;;;6.90;99.90;;;;;;5041648;28;20519;-81
2022/11/12 03:45:33;;;;;;;3.80;2.40;;;6.90;99.90;;;;;;5040851;28;20494;-77
2022/11/12 03:47:59;;;;;;;4.07;2.70;;;6.90;99.90;;;;;;5039827;28;20452;-79
2022/11/12 03:50:28;;;;;;;7.57;3.00;;;6.90;99.90;;;;;;5040397;28;20985;-79
2022/11/12 03:52:57;;;;;;;4.30;2.43;;;6.90;99.90;;;;;;5041168;28;20458;-78
2022/11/12 03:55:26;;;;;;;4.70;3.13;;;6.80;99.90;;;;;;5041107;28;20502;-79
2022/11/12 03:57:54;;;;;;;4.03;2.53;;;6.80;99.90;;;;;;5039613;28;20451;-82
2022/11/12 04:00:23;;;;;;;8.17;3.27;;;6.80;99.90;;;;;;5039738;28;20460;-79
2022/11/12 04:02:51;;;;;;;4.03;2.50;;;6.90;99.90;;;;;;5040115;28;20526;-80
2022/11/12 04:10:50;;;;;;;4.57;2.73;;;6.80;99.90;;;;;;5040961;28;20439;-80
2022/11/12 04:13:29;;;;;;;6.13;2.97;;;6.90;99.90;;;;;;5041512;28;20808;-78
2022/11/12 04:21:50;;;;;;;5.10;2.70;;;6.90;99.90;;;;;;5021329;28;20436;-78
2022/11/12 04:26:58;;;;;;;2.63;2.10;;;6.80;99.90;;;;;;4985347;28;20474;-80
2022/11/12 04:32:10;;;;;;;3.60;3.07;;;6.80;99.90;;;;;;5041682;28;20447;-79
2022/11/12 04:34:38;;;;;;;5.00;2.27;;;6.90;99.90;;;;;;5040695;28;20482;-81
2022/11/12 04:37:05;;;;;;;5.17;2.30;;;6.80;99.90;;;;;;5040911;28;20554;-79
2022/11/12 04:39:32;;;;;;;4.10;2.77;;;6.90;99.90;;;;;;5039740;28;20538;-79
2022/11/12 04:45:02;;;;;;;3.37;2.40;;;6.80;99.90;;;;;;5041562;28;20458;-79
2022/11/12 04:47:32;;;;;;;4.10;2.50;;;6.80;99.90;;;;;;5042272;28;20834;-81
2022/11/12 04:50:01;;;;;;;4.67;2.33;;;6.80;99.90;;;;;;5040432;28;20574;-81
2022/11/12 04:52:29;;;;;;;3.17;2.17;;;6.80;99.90;;;;;;5041946;28;20822;-80
2022/11/12 04:54:56;;;;;;;4.50;2.70;;;6.80;99.90;;;;;;5042356;28;20563;-81
2022/11/12 04:57:23;;;;;;;4.13;2.30;;;6.80;99.90;;;;;;5041255;28;20464;-82
2022/11/12 04:59:50;;;;;;;4.33;2.37;;;6.80;99.90;;;;;;5040720;28;20455;-80
2022/11/12 05:02:18;;;;;;;3.13;2.37;;;6.80;99.90;;;;;;5041462;28;20454;-82
2022/11/12 05:04:44;;;;;;;4.80;2.60;;;6.80;99.90;;;;;;5041684;28;21067;-81
2022/11/12 05:07:13;;;;;;;3.53;2.30;;;6.90;99.90;;;;;;5041980;28;20556;-81
2022/11/12 05:09:40;;;;;;;5.03;2.00;;;6.80;99.90;;;;;;5040339;28;20480;-82
2022/11/12 05:12:07;;;;;;;5.03;2.40;;;6.80;99.90;;;;;;5041869;28;20910;-79
2022/11/12 05:14:34;;;;;;;3.50;2.23;;;6.80;99.90;;;;;;5041340;28;20480;-81
2022/11/12 05:17:01;;;;;;;6.17;2.40;;;6.80;99.90;;;;;;5042140;28;20908;-80
2022/11/12 05:19:28;;;;;;;4.53;2.40;;;6.70;99.90;;;;;;5041783;28;20455;-82
2022/11/12 05:22:07;;;;;;;3.23;2.60;;;6.70;99.90;;;;;;5042533;28;20505;-78
2022/11/12 05:24:37;;;;;;;3.60;2.43;;;6.70;99.90;;;;;;5041377;28;20490;-81
2022/11/12 05:27:06;;;;;;;3.37;2.43;;;6.70;99.90;;;;;;5042261;28;20554;-82
2022/11/12 05:29:33;;;;;;;3.73;2.53;;;6.70;99.90;;;;;;5041141;28;20850;-81
2022/11/12 05:32:00;;;;;;;3.57;2.23;;;6.70;99.90;;;;;;5044100;28;20555;-82
2022/11/12 05:34:27;;;;;;;3.70;2.43;;;6.70;99.90;;;;;;5050589;28;20953;-81
2022/11/12 05:36:54;;;;;;;3.43;2.20;;;6.70;99.90;;;;;;5048292;28;20455;-79
2022/11/12 05:39:20;;;;;;;7.13;3.23;;;6.70;99.90;;;;;;5044986;28;21013;-79
2022/11/12 05:41:49;;;;;;;4.33;2.73;;;6.70;99.90;;;;;;5040796;28;20960;-80
2022/11/12 05:44:16;;;;;;;4.37;3.13;;;6.70;99.90;;;;;;5039797;28;20564;-81
2022/11/12 05:46:43;;;;;;;6.67;2.77;;;6.70;99.90;;;;;;5037624;28;20829;-79
2022/11/12 05:49:10;;;;;;;4.67;2.30;;;6.70;99.90;;;;;;5038672;28;20574;-80
2022/11/12 05:51:37;;;;;;;3.57;2.30;;;6.70;99.90;;;;;;5040554;28;20448;-79
2022/11/12 05:54:04;;;;;;;4.40;2.63;;;6.60;99.90;;;;;;5039436;28;20472;-81
2022/11/12 05:56:31;;;;;;;4.13;2.53;;;6.60;99.90;;;;;;5039487;28;20448;-79
2022/11/12 05:59:00;;;;;;;4.77;2.60;;;6.60;99.90;;;;;;5039316;28;20554;-81
2022/11/12 06:01:27;;;;;;;4.60;2.40;;;6.60;99.90;;;;;;5038980;28;20964;-80
2022/11/12 06:03:53;;;;;;;3.60;2.40;;;6.60;99.90;;;;;;5039749;28;20471;-80
2022/11/12 06:06:20;;;;;;;3.30;2.30;;;6.60;99.90;;;;;;5040143;28;20898;-80
2022/11/12 06:08:47;;;;;;;3.80;2.20;;;6.50;99.90;;;;;;5039022;28;20520;-81
2022/11/12 06:11:14;;;;;;;3.57;2.07;;;6.50;99.90;;;;;;5039525;28;21032;-80
2022/11/12 06:13:41;;;;;;;4.40;3.20;;;6.50;99.90;;;;;;5039644;28;20507;-80
2022/11/12 06:16:09;;;;;;;4.33;2.53;;;6.50;99.90;;;;;;5039572;28;20487;-79
2022/11/12 06:18:36;;;;;;;5.80;2.97;;;6.50;99.90;;;;;;5038687;28;20465;-80
2022/11/12 06:21:21;;;;;;;4.03;2.10;;;6.50;99.90;;;;;;5039304;28;20460;-82
2022/11/12 06:23:52;;;;;;;3.97;2.27;;;6.50;99.90;;;;;;5039740;28;20475;-81
2022/11/12 06:26:20;;;;;;;3.17;2.13;;;6.50;99.90;;;;;;5038548;28;20439;-79
2022/11/12 06:28:48;;;;;;;4.80;2.50;;;6.50;99.90;;;;;;5038075;28;20455;-80
2022/11/12 06:31:17;;;;;;;4.63;2.27;;;6.40;99.90;;;;;;5039288;28;20488;-81
2022/11/12 06:33:45;;;;;;;3.50;2.10;;;6.50;99.90;;;;;;5038550;28;20484;-80
2022/11/12 06:36:13;;;;;;;7.33;3.20;;;6.40;99.90;;;;;;5038729;28;20474;-81
2022/11/12 06:38:41;;;;;;;4.70;2.53;;;6.50;99.90;;;;;;5035384;28;20460;-78
2022/11/12 06:41:10;;;;;;;3.87;2.53;;;6.50;99.90;;;;;;5031893;28;20974;-78
2022/11/12 06:43:37;;;;;;;5.33;2.80;;;6.50;99.90;;;;;;5040760;28;20872;-77
2022/11/12 06:46:15;;;;;;;;;;;;;;;;;;;;;
2022/11/12 06:48:44;;;;;;;3.27;2.47;;;6.50;99.90;;;;;;5033547;28;20464;-78
2022/11/12 06:51:17;;;;;;;5.20;3.10;;;6.50;99.90;;;;;;5033948;28;20530;-79
2022/11/12 06:53:45;;;;;;;4.00;2.60;;;6.50;99.90;;;;;;5034324;28;20490;-79
2022/11/12 06:56:12;;;;;;;4.83;2.60;;;6.50;99.90;;;;;;5034658;28;20487;-78
2022/11/12 06:58:39;;;;;;;6.17;2.80;;;6.50;99.90;;;;;;5033489;28;20472;-78
2022/11/12 07:01:11;;;;;;;4.40;2.37;;;6.60;99.90;;;;;;5034480;28;21080;-79
2022/11/12 07:03:39;;;;;;;4.43;3.10;;;6.60;99.90;;;;;;5033796;28;20494;-78
2022/11/12 07:06:10;;;;;;;4.80;2.10;;;6.60;99.90;;;;;;5034119;28;20993;-80
2022/11/12 07:08:37;;;;;;;3.80;2.47;;;6.50;99.90;;;;;;5033720;28;20869;-79
2022/11/12 07:11:05;;;;;;;3.33;2.13;;;6.60;99.90;;;;;;5034227;28;20487;-78
2022/11/12 07:13:33;;;;;;;4.10;2.40;;;6.60;99.90;;;;;;5033481;28;21024;-79
2022/11/12 07:16:01;;;;;;;3.87;2.67;;;6.70;99.90;;;;;;5045630;28;20537;-77
2022/11/12 07:18:28;;;;;;;3.47;2.10;;;6.70;99.90;;;;;;5053290;28;20545;-79
2022/11/12 07:21:00;;;;;;;4.70;2.63;;;6.70;99.90;;;;;;5039693;28;20819;-79
2022/11/12 07:23:31;;;;;;;5.87;2.47;;;6.70;99.90;;;;;;5031092;28;20546;-80
2022/11/12 07:25:59;;;;;;;5.30;2.90;;;6.70;99.90;;;;;;5034738;28;20547;-79
2022/11/12 07:28:26;;;;;;;5.33;2.73;;;6.70;99.90;;;;;;5036950;28;20443;-78
2022/11/12 07:30:58;;;;;;;3.60;2.50;;;6.70;99.90;;;;;;5034742;28;20538;-79
2022/11/12 07:33:25;;;;;;;4.00;2.90;;;6.70;99.90;;;;;;5046289;28;20923;-79
2022/11/12 07:36:00;;;;;;;3.70;2.37;;;6.80;99.90;;;;;;5034134;28;20452;-78
2022/11/12 07:38:29;;;;;;;3.10;2.60;;;6.80;99.90;;;;;;5034354;28;20858;-79
2022/11/12 07:41:01;;;;;;;3.23;2.40;;;6.80;99.90;;;;;;5037542;28;20455;-78
2022/11/12 07:43:28;;;;;;;4.63;2.57;;;6.80;99.90;;;;;;5037401;28;20502;-78
2022/11/12 07:45:58;;;;;;;6.23;2.83;;;6.80;99.90;;;;;;5034380;28;20464;-78
2022/11/12 07:48:25;;;;;;;3.60;2.60;;;6.90;99.90;;;;;;5038597;28;20462;-79
2022/11/12 07:50:52;;;;;;;11.00;7.50;;;6.90;99.90;;;;;;5037777;28;20479;-82
2022/11/12 07:53:19;;;;;;;11.07;7.93;;;6.90;99.90;;;;;;5038403;28;20538;-77
2022/11/12 07:55:54;;;;;;;8.73;6.33;;;7.00;99.90;;;;;;5041198;28;20462;-79
2022/11/12 07:58:21;;;;;;;9.00;6.20;;;7.00;99.90;;;;;;5045866;28;20947;-79
2022/11/12 08:00:48;;;;;;;8.47;5.50;;;7.10;99.90;;;;;;5057998;28;20812;-80
2022/11/12 08:03:15;;;;;;;6.90;3.77;;;7.10;99.90;;;;;;5057994;28;20528;-81
2022/11/12 08:05:43;;;;;;;6.00;3.90;;;7.10;99.90;;;;;;5043382;28;20491;-81
2022/11/12 08:08:10;;;;;;;5.67;3.40;;;7.20;99.90;;;;;;5034568;28;20946;-81
2022/11/12 08:10:38;;;;;;;5.63;3.37;;;7.20;99.90;;;;;;5036820;28;20492;-82
2022/11/12 08:13:06;;;;;;;4.20;2.90;;;7.30;99.90;;;;;;5043213;28;20516;-81
2022/11/12 08:15:33;;;;;;;4.97;3.00;;;7.30;99.90;;;;;;5050250;28;20506;-80
2022/11/12 08:17:59;;;;;;;4.80;3.10;;;7.40;99.90;;;;;;5040525;28;20527;-80
2022/11/12 08:20:26;;;;;;;5.33;3.30;;;7.40;99.90;;;;;;5041066;28;20933;-79
2022/11/12 08:22:53;;;;;;;4.20;2.60;;;7.40;99.90;;;;;;5041786;28;20453;-82
2022/11/12 08:25:20;;;;;;;11.07;3.70;;;7.50;99.90;;;;;;5040287;28;20572;-81
2022/11/12 08:27:49;;;;;;;7.20;3.47;;;7.50;99.90;;;;;;5041793;28;20481;-79
2022/11/12 08:30:18;;;;;;;5.83;3.47;;;7.60;99.90;;;;;;5040931;28;20560;-81
2022/11/12 08:32:45;;;;;;;4.93;3.20;;;7.70;99.90;;;;;;5042235;28;20878;-79
2022/11/12 08:35:11;;;;;;;6.17;3.27;;;7.70;99.90;;;;;;5039202;28;20511;-81
2022/11/12 08:37:38;;;;;;;5.03;3.37;;;7.80;99.90;;;;;;5042306;28;21008;-80
2022/11/12 08:40:06;;;;;;;5.00;3.10;;;7.90;99.90;;;;;;5041413;28;20540;-81
2022/11/12 08:42:33;;;;;;;4.00;3.30;;;7.90;99.90;;;;;;5041210;28;20521;-81
2022/11/12 08:45:00;;;;;;;8.27;3.23;;;8.00;99.90;;;;;;5041175;28;20885;-80
2022/11/12 08:47:28;;;;;;;7.83;4.10;;;8.00;99.90;;;;;;5042444;28;20442;-82
2022/11/12 08:49:55;;;;;;;4.93;3.87;;;8.10;99.90;;;;;;5039788;28;20463;-80
2022/11/12 08:52:22;;;;;;;5.77;3.43;;;8.10;99.90;;;;;;5044384;28;20482;-81
2022/11/12 08:54:48;;;;;;;5.77;3.47;;;8.20;99.90;;;;;;5043031;28;21061;-80
2022/11/12 08:57:16;;;;;;;6.20;3.80;;;8.30;99.90;;;;;;5040651;28;20504;-81
2022/11/12 08:59:42;;;;;;;6.37;3.57;;;8.30;99.90;;;;;;5038036;28;20431;-79
2022/11/12 09:02:12;;;;;;;5.47;3.10;;;8.40;99.90;;;;;;5039565;28;20449;-81
2022/11/12 09:04:40;;;;;;;5.93;3.20;;;8.50;99.90;;;;;;5039644;28;20460;-79
2022/11/12 09:07:07;;;;;;;6.83;3.73;;;8.50;99.90;;;;;;5038274;28;20441;-79
2022/11/12 09:09:34;;;;;;;5.77;3.40;;;8.60;99.90;;;;;;5040092;28;20440;-79
2022/11/12 09:12:01;;;;;;;5.80;3.87;;;8.70;99.90;;;;;;5044191;28;20492;-78
2022/11/12 09:14:28;;;;;;;7.50;3.90;;;8.80;99.90;;;;;;5038869;28;20484;-79
2022/11/12 09:16:55;;;;;;;4.60;3.27;;;8.80;99.90;;;;;;5038464;28;20449;-80
2022/11/12 09:19:21;;;;;;;5.00;3.33;;;8.90;99.90;;;;;;5039483;28;20461;-82
2022/11/12 09:21:49;;;;;;;6.63;3.10;;;8.90;99.90;;;;;;5038538;28;20866;-80
2022/11/12 09:24:16;;;;;;;6.23;3.93;;;9.00;99.90;;;;;;5038427;28;20556;-81
2022/11/12 09:26:43;;;;;;;3.90;3.00;;;9.00;99.90;;;;;;5038399;28;20449;-78
2022/11/12 09:29:10;;;;;;;4.90;2.90;;;9.10;99.90;;;;;;5037911;28;20440;-79
2022/11/12 09:31:37;;;;;;;5.73;3.10;;;9.10;99.90;;;;;;5038070;28;20490;-81
2022/11/12 09:34:04;;;;;;;5.00;3.00;;;9.20;99.90;;;;;;5037696;28;20480;-79
2022/11/12 09:36:31;;;;;;;4.20;2.77;;;9.20;99.90;;;;;;5038052;28;20459;-79
2022/11/12 09:38:59;;;;;;;5.33;2.77;;;9.30;99.90;;;;;;5038012;28;20443;-80
2022/11/12 09:41:32;;;;;;;5.37;3.00;;;9.40;99.90;;;;;;5038074;28;20448;-79
2022/11/12 09:44:02;;;;;;;7.00;3.70;;;9.40;99.90;;;;;;5037055;28;20479;-79
2022/11/12 09:46:34;;;;;;;5.90;3.07;;;9.50;99.90;;;;;;5036367;28;21031;-81
2022/11/12 09:49:07;;;;;;;4.60;2.77;;;9.60;99.90;;;;;;5037105;28;20438;-80
2022/11/12 09:51:37;;;;;;;5.80;3.10;;;9.60;99.90;;;;;;5036862;28;20885;-79
2022/11/12 09:54:13;;;;;;;3.37;2.70;;;9.70;99.90;;;;;;5036301;28;20985;-80
2022/11/12 09:56:40;;;;;;;8.00;4.00;;;9.80;99.90;;;;;;5036844;28;20465;-79
2022/11/12 09:59:11;;;;;;;5.50;3.60;;;9.80;99.90;;;;;;5036259;28;20509;-79
2022/11/12 10:01:43;;;;;;;5.00;3.67;;;9.90;99.90;;;;;;5036281;28;20519;-79
2022/11/12 10:04:34;;;;;;;6.50;4.03;;;10.00;99.90;;;;;;5036857;28;20532;-80
2022/11/12 10:07:06;;;;;;;5.73;3.60;;;10.20;99.90;;;;;;5033651;28;20799;-79
2022/11/12 10:09:41;;;;;;;7.20;4.03;;;10.20;99.90;;;;;;5017213;28;20440;-81
2022/11/12 10:12:33;;;;;;;5.93;3.93;;;10.40;99.90;;;;;;5038256;28;20566;-80
2022/11/12 10:18:17;;;;;;;7.20;4.07;;;10.50;99.90;;;;;;5023400;28;20435;-78
2022/11/12 10:20:54;;;;;;;6.13;3.70;;;10.60;99.90;;;;;;5027882;28;20449;-80
2022/11/12 10:23:29;;;;;;;6.10;4.30;;;10.70;99.90;;;;;;5025856;28;20457;-81
2022/11/12 10:26:01;;;;;;;8.57;4.30;;;10.80;99.90;;;;;;5025754;28;20444;-80
2022/11/12 10:28:29;;;;;;;7.17;4.20;;;10.90;99.90;;;;;;5017491;28;20460;-80
2022/11/12 10:31:01;;;;;;;9.67;5.20;;;11.00;99.90;;;;;;5018974;28;20491;-79
2022/11/12 10:33:31;;;;;;;9.23;6.37;;;11.20;99.90;;;;;;5031821;28;20862;-78
2022/11/12 10:36:15;;;;;;;8.50;5.97;;;11.40;99.90;;;;;;5038221;28;20438;-81
2022/11/12 10:38:45;;;;;;;8.23;6.00;;;11.60;99.90;;;;;;5002097;28;20978;-81
2022/11/12 10:41:22;;;;;;;7.63;5.50;;;11.80;99.90;;;;;;5033535;28;20467;-81
2022/11/12 10:43:57;;;;;;;7.63;5.60;;;11.90;99.90;;;;;;5045309;28;20477;-81
2022/11/12 10:46:26;;;;;;;7.70;5.33;;;12.10;99.90;;;;;;5037602;28;20548;-79
2022/11/12 10:49:01;;;;;;;10.13;5.83;;;12.30;99.90;;;;;;5037454;28;20443;-81
2022/11/12 10:51:31;;;;;;;7.33;5.83;;;12.40;99.90;;;;;;5037873;28;20493;-81
2022/11/12 10:53:59;;;;;;;8.87;5.80;;;12.60;99.90;;;;;;5037660;28;20558;-79
2022/11/12 10:56:29;;;;;;;13.30;8.27;;;12.70;99.90;;;;;;5037204;28;20547;-82
2022/11/12 10:59:10;;;;;;;7.90;6.00;;;12.90;99.90;;;;;;5037053;28;20453;-80
2022/11/12 11:01:38;;;;;;;9.10;5.90;;;13.20;99.90;;;;;;5037742;28;20438;-81
2022/11/12 11:04:15;;;;;;;8.23;4.30;;;13.70;99.90;;;;;;5037786;28;20525;-80
2022/11/12 11:06:41;;;;;;;7.27;4.40;;;14.40;99.90;;;;;;5036312;28;20444;-80
2022/11/12 11:09:16;;;;;;;5.27;3.80;;;15.70;99.90;;;;;;5036564;28;20447;-80
2022/11/12 11:11:52;;;;;;;6.40;4.17;;;17.20;99.90;;;;;;5036298;28;20484;-80
2022/11/12 11:14:26;;;;;;;5.00;3.70;;;18.40;99.90;;;;;;5042466;28;20497;-80
2022/11/12 11:16:54;;;;;;;6.00;3.93;;;19.50;99.90;;;;;;5027180;28;20708;-81
2022/11/12 11:19:21;;;;;;;8.67;4.00;;;20.40;99.90;;;;;;5044422;28;20823;-80
2022/11/12 11:22:01;;;;;;;5.90;4.23;;;20.60;99.90;;;;;;5044640;28;20448;-80
2022/11/12 11:24:37;;;;;;;5.20;3.70;;;20.60;99.90;;;;;;5029783;28;20546;-80
2022/11/12 11:27:13;;;;;;;7.07;4.20;;;20.70;99.90;;;;;;5046468;28;20461;-81
2022/11/12 11:29:57;;;;;;;5.53;4.40;;;21.00;99.90;;;;;;5042427;28;21012;-78
2022/11/12 11:32:40;;;;;;;6.80;4.73;;;21.10;99.90;;;;;;5041370;28;20938;-81
2022/11/12 11:35:20;;;;;;;8.80;6.40;;;21.10;99.90;;;;;;5043953;28;20476;-79
2022/11/12 11:37:56;;;;;;;7.40;5.90;;;21.30;99.90;;;;;;5042222;28;20538;-82
2022/11/12 11:40:28;;;;;;;8.40;7.33;;;21.70;99.90;;;;;;5044105;28;20466;-80
2022/11/12 11:43:12;;;;;;;7.83;5.50;;;22.00;99.90;;;;;;5045026;28;20464;-80
2022/11/12 11:45:56;;;;;;;8.93;5.50;;;22.10;99.90;;;;;;5044028;28;20515;-82
2022/11/12 11:48:31;;;;;;;7.50;5.43;;;22.00;99.90;;;;;;5044944;28;20432;-80
2022/11/12 11:51:06;;;;;;;7.90;5.60;;;21.90;99.90;;;;;;5043772;28;20481;-81
2022/11/12 11:53:43;;;;;;;8.90;5.03;;;21.80;99.90;;;;;;5042577;28;20488;-82
2022/11/12 11:56:20;;;;;;;6.10;4.57;;;21.80;99.90;;;;;;5042937;28;20527;-82
2022/11/12 11:59:04;;;;;;;6.90;4.93;;;21.60;99.90;;;;;;5041927;28;20515;-82
2022/11/12 12:01:47;;;;;;;9.30;4.93;;;21.20;99.90;;;;;;5038888;28;20484;-79
2022/11/12 12:04:38;;;;;;;4.90;4.13;;;20.80;99.90;;;;;;5023459;28;20492;-81
2022/11/12 12:07:18;;;;;;;6.00;4.33;;;20.30;99.90;;;;;;5021427;28;20516;-81
2022/11/12 12:09:54;;;;;;;5.63;4.43;;;19.90;99.90;;;;;;5040031;28;20475;-81
2022/11/12 12:12:32;;;;;;;6.63;4.10;;;19.40;99.90;;;;;;5043336;28;20518;-81
2022/11/12 12:15:16;;;;;;;4.90;3.47;;;19.10;99.90;;;;;;5045229;28;20465;-80
2022/11/12 12:17:56;;;;;;;7.00;3.90;;;18.80;99.90;;;;;;5044483;28;20455;-81
2022/11/12 12:20:32;;;;;;;4.67;3.23;;;18.60;99.90;;;;;;5046037;28;20550;-81
2022/11/12 12:23:02;;;;;;;7.17;4.20;;;18.40;99.90;;;;;;5039628;28;20448;-81
2022/11/12 12:25:36;;;;;;;7.00;4.47;;;18.20;99.90;;;;;;5042192;28;20461;-81
2022/11/12 12:28:12;;;;;;;6.20;3.37;;;18.10;99.90;;;;;;5040989;28;20439;-81
2022/11/12 12:30:45;;;;;;;5.93;4.00;;;17.90;99.90;;;;;;5041535;28;20729;-82
2022/11/12 12:33:31;;;;;;;6.67;3.50;;;17.90;99.90;;;;;;5042571;28;20791;-79
2022/11/12 12:36:02;;;;;;;5.33;3.53;;;17.80;99.90;;;;;;5043051;28;20449;-81
2022/11/12 12:38:37;;;;;;;4.63;3.27;;;17.80;99.90;;;;;;5045465;28;20448;-83
2022/11/12 12:41:14;;;;;;;6.53;4.03;;;17.60;99.90;;;;;;5043524;28;20528;-81
2022/11/12 12:43:45;;;;;;;5.70;4.00;;;17.50;99.90;;;;;;5047025;28;20554;-79
2022/11/12 12:46:16;;;;;;;7.57;3.63;;;17.40;99.90;;;;;;5042800;28;20483;-80
2022/11/12 12:48:46;;;;;;;7.67;3.63;;;17.30;99.90;;;;;;5038585;28;20951;-79
2022/11/12 12:51:13;;;;;;;4.90;2.93;;;17.30;99.90;;;;;;5024098;28;21016;-80
2022/11/12 12:53:40;;;;;;;5.80;3.33;;;17.30;99.90;;;;;;5029358;28;20546;-80
2022/11/12 12:56:43;;;;;;;5.80;3.60;;;17.20;99.90;;;;;;5040300;28;20456;-78
2022/11/12 12:59:20;;;;;;;5.27;3.63;;;17.10;99.90;;;;;;5038840;28;20448;-80
2022/11/12 13:01:56;;;;;;;4.87;3.90;;;17.00;99.90;;;;;;5040123;28;20448;-81
2022/11/12 13:04:51;;;;;;;6.53;3.97;;;16.80;99.90;;;;;;5040651;28;20471;-80
2022/11/12 13:07:18;;;;;;;5.93;3.80;;;16.70;99.90;;;;;;5036797;28;20447;-81
2022/11/12 13:09:45;;;;;;;5.07;3.90;;;16.50;99.90;;;;;;5038238;28;20444;-79
2022/11/12 13:12:24;;;;;;;4.30;3.60;;;16.50;99.90;;;;;;5039629;28;20563;-80
2022/11/12 13:14:55;;;;;;;6.27;4.50;;;16.40;99.90;;;;;;5039898;28;20533;-80
2022/11/12 13:17:44;;;;;;;5.80;4.40;;;16.30;99.90;;;;;;5039464;28;20462;-80
2022/11/12 13:20:35;;;;;;;6.63;4.77;;;16.20;99.90;;;;;;5036744;28;20658;-80
2022/11/12 13:23:03;;;;;;;7.20;4.90;;;16.20;99.90;;;;;;5031212;28;20453;-80
2022/11/12 13:25:31;;;;;;;7.00;4.73;;;16.10;99.90;;;;;;5038589;28;20483;-81
2022/11/12 13:28:14;;;;;;;6.40;5.10;;;16.00;99.90;;;;;;5037715;28;20453;-81
2022/11/12 13:31:02;;;;;;;8.43;4.50;;;16.00;99.90;;;;;;5036922;28;20445;-83
2022/11/12 13:33:35;;;;;;;8.20;5.33;;;15.90;99.90;;;;;;5044397;28;20538;-80